createdAt,value
2018-01-04T00:01:22.030Z,7.70
2018-01-04T00:03:49.534Z,7.70
2018-01-04T00:06:17.064Z,7.70
2018-01-04T00:08:44.616Z,7.70
2018-01-04T00:11:12.105Z,7.70
2018-01-04T00:13:39.614Z,7.70
2018-01-04T00:16:07.151Z,7.70
2018-01-04T00:18:34.684Z,7.60
2018-01-04T00:21:02.174Z,7.60
2018-01-04T00:23:30.484Z,7.60
2018-01-04T00:25:58.014Z,7.60
2018-01-04T00:28:26.336Z,7.50
2018-01-04T00:30:53.826Z,7.50
2018-01-04T00:33:21.333Z,7.50
2018-01-04T00:35:48.829Z,7.50
2018-01-04T00:38:16.345Z,7.60
2018-01-04T00:40:43.830Z,7.60
2018-01-04T00:43:11.341Z,7.60
2018-01-04T00:45:39.597Z,7.60
2018-01-04T00:48:07.107Z,7.60
2018-01-04T00:50:34.603Z,7.60
2018-01-04T00:53:02.097Z,7.50
2018-01-04T00:55:30.374Z,7.60
2018-01-04T00:57:58.625Z,7.60
2018-01-04T01:00:26.134Z,7.50
2018-01-04T01:02:53.636Z,7.50
2018-01-04T01:05:21.142Z,7.50
2018-01-04T01:07:49.463Z,7.60
2018-01-04T01:10:16.977Z,7.60
2018-01-04T01:12:44.478Z,7.60
2018-01-04T01:15:11.990Z,7.60
2018-01-04T01:17:40.246Z,7.60
2018-01-04T01:20:07.750Z,7.60
2018-01-04T01:22:35.235Z,7.70
2018-01-04T01:25:02.742Z,7.70
2018-01-04T01:27:31.001Z,7.70
2018-01-04T01:29:59.274Z,7.80
2018-01-04T01:32:26.773Z,7.80
2018-01-04T01:34:54.278Z,7.70
2018-01-04T01:37:21.765Z,7.70
2018-01-04T01:39:50.063Z,7.80
2018-01-04T01:42:17.548Z,7.80
2018-01-04T01:44:45.051Z,7.70
2018-01-04T01:47:13.305Z,7.70
2018-01-04T01:49:40.819Z,7.70
2018-01-04T01:52:08.310Z,7.70
2018-01-04T01:54:35.810Z,7.70
2018-01-04T01:57:04.077Z,7.80
2018-01-04T01:59:31.582Z,7.70
2018-01-04T02:01:59.065Z,7.80
2018-01-04T02:04:26.573Z,7.70
2018-01-04T02:06:54.080Z,7.70
2018-01-04T02:09:21.581Z,7.70
2018-01-04T02:11:49.834Z,7.70
2018-01-04T02:14:17.341Z,7.70
2018-01-04T02:16:44.825Z,7.70
2018-01-04T02:19:24.150Z,7.70
2018-01-04T02:22:03.302Z,7.70
2018-01-04T02:24:42.657Z,7.70
2018-01-04T02:27:21.930Z,7.70
2018-01-04T02:30:01.185Z,7.70
2018-01-04T02:32:40.599Z,7.70
2018-01-04T02:35:20.978Z,7.70
2018-01-04T02:38:00.319Z,7.70
2018-01-04T02:40:39.821Z,7.70
2018-01-04T02:43:19.938Z,7.70
2018-01-04T02:45:59.265Z,7.70
2018-01-04T02:48:26.750Z,7.80
2018-01-04T02:50:54.258Z,7.80
2018-01-04T02:53:21.755Z,7.70
2018-01-04T02:55:49.281Z,7.70
2018-01-04T02:58:16.770Z,7.80
2018-01-04T03:00:44.301Z,7.80
2018-01-04T03:03:11.815Z,7.80
2018-01-04T03:05:39.313Z,7.80
2018-01-04T03:08:06.818Z,7.80
2018-01-04T03:10:34.369Z,7.80
2018-01-04T03:13:01.878Z,7.80
2018-01-04T03:15:29.363Z,7.80
2018-01-04T03:17:56.866Z,7.80
2018-01-04T03:20:24.356Z,7.80
2018-01-04T03:23:08.671Z,7.80
2018-01-04T03:25:41.884Z,7.80
2018-01-04T03:28:15.790Z,7.80
2018-01-04T03:30:49.654Z,7.80
2018-01-04T03:33:22.941Z,7.80
2018-01-04T03:35:56.154Z,7.80
2018-01-04T03:38:29.282Z,7.80
2018-01-04T03:41:02.379Z,7.80
2018-01-04T03:43:36.291Z,7.80
2018-01-04T03:46:09.401Z,7.80
2018-01-04T03:48:42.526Z,7.80
2018-01-04T03:51:15.810Z,7.80
2018-01-04T03:53:49.170Z,7.80
2018-01-04T03:56:22.347Z,7.80
2018-01-04T03:58:56.387Z,7.80
2018-01-04T04:01:29.449Z,7.80
2018-01-04T04:03:57.722Z,7.80
2018-01-04T04:06:31.638Z,7.80
2018-01-04T04:08:59.926Z,7.80
2018-01-04T04:11:27.428Z,7.80
2018-01-04T04:13:54.954Z,7.70
2018-01-04T04:16:22.450Z,7.70
2018-01-04T04:18:49.953Z,7.70
2018-01-04T04:21:17.469Z,7.70
2018-01-04T04:23:44.978Z,7.70
2018-01-04T04:26:12.542Z,7.70
2018-01-04T04:28:40.787Z,7.70
2018-01-04T04:31:09.050Z,7.70
2018-01-04T04:33:36.564Z,7.70
2018-01-04T04:36:04.066Z,7.70
2018-01-04T04:38:31.589Z,7.70
2018-01-04T04:40:59.082Z,7.70
2018-01-04T04:43:26.595Z,7.70
2018-01-04T04:45:54.089Z,7.70
2018-01-04T04:48:21.582Z,7.70
2018-01-04T04:50:49.861Z,7.80
2018-01-04T04:53:18.122Z,7.80
2018-01-04T04:55:45.638Z,7.80
2018-01-04T04:58:13.130Z,7.70
2018-01-04T05:00:40.638Z,7.80
2018-01-04T05:03:08.142Z,7.80
2018-01-04T05:05:35.662Z,7.80
2018-01-04T05:08:03.158Z,7.80
2018-01-04T05:10:30.674Z,7.90
2018-01-04T05:12:58.177Z,7.90
2018-01-04T05:15:25.685Z,7.90
2018-01-04T05:17:53.184Z,7.90
2018-01-04T05:20:20.705Z,7.90
2018-01-04T05:22:48.205Z,8.00
2018-01-04T05:25:15.722Z,8.00
2018-01-04T05:27:43.214Z,8.00
2018-01-04T05:30:10.730Z,8.00
2018-01-04T05:32:38.990Z,7.90
2018-01-04T05:35:07.268Z,7.90
2018-01-04T05:37:35.530Z,7.90
2018-01-04T05:40:03.034Z,7.90
2018-01-04T05:42:30.580Z,7.90
2018-01-04T05:44:58.089Z,7.90
2018-01-04T05:47:25.594Z,7.90
2018-01-04T05:49:53.875Z,8.00
2018-01-04T05:52:21.381Z,7.90
2018-01-04T05:54:48.894Z,7.90
2018-01-04T05:57:16.393Z,8.00
2018-01-04T05:59:43.902Z,8.00
2018-01-04T06:02:12.157Z,8.00
2018-01-04T06:04:39.662Z,8.00
2018-01-04T06:07:07.149Z,8.00
2018-01-04T06:09:34.655Z,8.00
2018-01-04T06:12:02.909Z,7.90
2018-01-04T06:14:30.414Z,7.90
2018-01-04T06:16:57.901Z,7.90
2018-01-04T06:19:25.410Z,7.90
2018-01-04T06:21:53.667Z,7.90
2018-01-04T06:24:21.169Z,7.90
2018-01-04T06:26:48.655Z,7.90
2018-01-04T06:29:16.159Z,7.90
2018-01-04T06:31:44.409Z,7.90
2018-01-04T06:34:11.911Z,7.90
2018-01-04T06:36:39.405Z,7.90
2018-01-04T06:39:06.922Z,7.90
2018-01-04T06:41:34.445Z,7.90
2018-01-04T06:44:01.933Z,7.80
2018-01-04T06:46:30.206Z,7.80
2018-01-04T06:48:58.466Z,7.80
2018-01-04T06:51:26.010Z,7.80
2018-01-04T06:53:53.509Z,7.80
2018-01-04T06:56:22.026Z,7.80
2018-01-04T06:58:49.546Z,7.80
2018-01-04T07:01:17.766Z,7.80
2018-01-04T07:03:45.266Z,7.80
2018-01-04T07:06:12.988Z,7.90
2018-01-04T07:08:40.482Z,7.90
2018-01-04T07:11:07.992Z,7.80
2018-01-04T07:13:35.482Z,7.80
2018-01-04T07:16:02.990Z,7.80
2018-01-04T07:18:30.478Z,7.80
2018-01-04T07:20:57.986Z,7.80
2018-01-04T07:23:26.247Z,7.80
2018-01-04T07:25:53.801Z,7.80
2018-01-04T07:28:21.289Z,7.80
2018-01-04T07:30:48.798Z,7.80
2018-01-04T07:33:17.062Z,7.80
2018-01-04T07:35:44.569Z,7.70
2018-01-04T07:38:12.834Z,7.80
2018-01-04T07:40:40.333Z,7.70
2018-01-04T07:43:07.832Z,7.80
2018-01-04T07:45:35.345Z,7.80
2018-01-04T07:48:03.605Z,7.70
2018-01-04T07:50:31.883Z,7.70
2018-01-04T07:53:00.135Z,7.70
2018-01-04T07:55:27.646Z,7.70
2018-01-04T07:57:55.141Z,7.70
2018-01-04T08:00:22.653Z,7.70
2018-01-04T08:02:50.141Z,7.70
2018-01-04T08:05:17.649Z,7.70
2018-01-04T08:07:45.906Z,7.70
2018-01-04T08:10:13.429Z,7.70
2018-01-04T08:12:40.925Z,7.70
2018-01-04T08:15:08.414Z,7.70
2018-01-04T08:17:36.681Z,7.70
2018-01-04T08:20:04.938Z,7.70
2018-01-04T08:22:32.461Z,7.70
2018-01-04T08:24:59.949Z,7.70
2018-01-04T08:27:27.454Z,7.80
2018-01-04T08:29:54.949Z,7.70
2018-01-04T08:32:22.445Z,7.80
2018-01-04T08:34:50.703Z,7.80
2018-01-04T08:37:18.201Z,7.80
2018-01-04T08:39:46.455Z,7.80
2018-01-04T08:42:13.965Z,7.80
2018-01-04T08:44:41.478Z,7.80
2018-01-04T08:47:08.987Z,7.80
2018-01-04T08:49:36.474Z,7.90
2018-01-04T08:52:03.982Z,7.90
2018-01-04T08:54:31.478Z,7.90
2018-01-04T08:56:59.757Z,8.00
2018-01-04T08:59:27.241Z,7.90
2018-01-04T09:01:54.749Z,8.00
2018-01-04T09:04:22.233Z,8.00
2018-01-04T09:06:49.730Z,8.00
2018-01-04T09:09:17.989Z,8.10
2018-01-04T09:11:45.496Z,8.10
2018-01-04T09:14:13.003Z,8.10
2018-01-04T09:16:40.512Z,8.20
2018-01-04T09:19:08.003Z,8.20
2018-01-04T09:21:35.513Z,8.20
2018-01-04T09:24:03.005Z,8.20
2018-01-04T09:26:30.518Z,8.30
2018-01-04T09:28:58.779Z,8.30
2018-01-04T09:31:26.282Z,8.30
2018-01-04T09:33:53.777Z,8.30
2018-01-04T09:36:21.261Z,8.40
2018-01-04T09:38:49.906Z,8.40
2018-01-04T09:41:17.402Z,8.40
2018-01-04T09:43:44.909Z,8.40
2018-01-04T09:46:12.398Z,8.50
2018-01-04T09:48:39.904Z,8.50
2018-01-04T09:51:07.406Z,8.50
2018-01-04T09:53:34.912Z,8.50
2018-01-04T09:56:02.418Z,8.50
2018-01-04T09:58:29.925Z,8.60
2018-01-04T10:00:58.182Z,8.60
2018-01-04T10:03:25.686Z,8.60
2018-01-04T10:05:53.179Z,8.60
2018-01-04T10:08:20.678Z,8.60
2018-01-04T10:10:48.935Z,8.70
2018-01-04T10:13:16.438Z,8.60
2018-01-04T10:15:43.933Z,8.70
2018-01-04T10:18:11.444Z,8.70
2018-01-04T10:20:38.929Z,8.70
2018-01-04T10:23:06.438Z,8.70
2018-01-04T10:25:34.693Z,8.70
2018-01-04T10:28:02.221Z,8.70
2018-01-04T10:30:30.205Z,8.70
2018-01-04T10:33:00.077Z,8.70
2018-01-04T10:35:27.641Z,8.80
2018-01-04T10:37:55.162Z,8.80
2018-01-04T10:40:22.657Z,8.80
2018-01-04T10:42:50.905Z,8.80
2018-01-04T10:45:18.412Z,8.80
2018-01-04T10:47:45.906Z,8.80
2018-01-04T10:50:13.414Z,8.80
2018-01-04T10:52:40.901Z,8.80
2018-01-04T10:55:08.414Z,8.80
2018-01-04T10:57:36.674Z,8.90
2018-01-04T11:00:04.174Z,8.90
2018-01-04T11:02:31.678Z,8.90
2018-01-04T11:04:59.186Z,8.90
2018-01-04T11:07:27.522Z,8.90
2018-01-04T11:09:55.032Z,8.90
2018-01-04T11:12:22.521Z,9.00
2018-01-04T11:14:50.030Z,9.00
2018-01-04T11:17:18.285Z,9.00
2018-01-04T11:19:45.782Z,9.00
2018-01-04T11:22:13.280Z,9.00
2018-01-04T11:24:40.793Z,9.00
2018-01-04T11:27:08.282Z,9.00
2018-01-04T11:29:35.781Z,9.00
2018-01-04T11:32:03.267Z,9.00
2018-01-04T11:34:30.758Z,9.00
2018-01-04T11:36:58.258Z,9.00
2018-01-04T11:39:26.517Z,9.00
2018-01-04T11:41:54.032Z,9.00
2018-01-04T11:44:21.522Z,9.00
2018-01-04T11:46:49.026Z,9.00
2018-01-04T11:49:17.277Z,9.10
2018-01-04T11:51:44.778Z,9.00
2018-01-04T11:54:12.274Z,9.10
2018-01-04T11:56:39.786Z,9.10
2018-01-04T11:59:07.281Z,9.10
2018-01-04T12:01:34.781Z,9.10
2018-01-04T12:04:03.038Z,9.10
2018-01-04T12:06:30.548Z,9.10
2018-01-04T12:08:58.041Z,9.10
2018-01-04T12:11:25.545Z,9.10
2018-01-04T12:13:53.801Z,9.20
2018-01-04T12:16:21.305Z,9.10
2018-01-04T12:18:48.798Z,9.20
2018-01-04T12:21:16.306Z,9.20
2018-01-04T12:23:43.793Z,9.20
2018-01-04T12:26:11.310Z,9.20
2018-01-04T12:28:39.561Z,9.20
2018-01-04T12:31:07.071Z,9.20
2018-01-04T12:33:34.566Z,9.20
2018-01-04T12:36:02.106Z,9.20
2018-01-04T12:38:29.593Z,9.20
2018-01-04T12:40:57.132Z,9.30
2018-01-04T12:43:24.621Z,9.30
2018-01-04T12:45:52.126Z,9.30
2018-01-04T12:48:19.618Z,9.30
2018-01-04T12:50:47.105Z,9.30
2018-01-04T12:53:14.613Z,9.30
2018-01-04T12:55:42.106Z,9.30
2018-01-04T12:58:09.606Z,9.30
2018-01-04T13:00:37.088Z,9.30
2018-01-04T13:03:04.593Z,9.30
2018-01-04T13:05:32.077Z,9.30
2018-01-04T13:08:00.343Z,9.30
2018-01-04T13:10:28.598Z,9.30
2018-01-04T13:12:56.889Z,9.30
2018-01-04T13:15:25.146Z,9.40
2018-01-04T13:17:52.648Z,9.40
2018-01-04T13:20:20.133Z,9.30
2018-01-04T13:22:47.634Z,9.30
2018-01-04T13:25:15.122Z,9.40
2018-01-04T13:27:42.629Z,9.40
2018-01-04T13:30:10.118Z,9.40
2018-01-04T13:32:38.395Z,9.40
2018-01-04T13:35:06.654Z,9.40
2018-01-04T13:37:34.170Z,9.30
2018-01-04T13:40:01.658Z,9.40
2018-01-04T13:42:29.179Z,9.40
2018-01-04T13:44:56.682Z,9.40
2018-01-04T13:47:24.196Z,9.40
2018-01-04T13:49:51.677Z,9.40
2018-01-04T13:52:19.181Z,9.40
2018-01-04T13:54:47.438Z,9.40
2018-01-04T13:57:14.941Z,9.40
2018-01-04T13:59:42.429Z,9.40
2018-01-04T14:02:09.957Z,9.40
2018-01-04T14:04:37.458Z,9.40
2018-01-04T14:07:04.957Z,9.40
2018-01-04T14:09:33.205Z,9.40
2018-01-04T14:12:02.322Z,9.30
2018-01-04T14:14:30.582Z,9.30
2018-01-04T14:16:58.090Z,9.30
2018-01-04T14:19:25.584Z,9.30
2018-01-04T14:21:53.097Z,9.30
2018-01-04T14:24:20.589Z,9.30
2018-01-04T14:26:48.094Z,9.30
2018-01-04T14:29:16.366Z,9.30
2018-01-04T14:31:43.857Z,9.30
2018-01-04T14:34:11.367Z,9.30
2018-01-04T14:36:38.857Z,9.30
2018-01-04T14:39:07.130Z,9.30
2018-01-04T14:41:35.386Z,9.20
2018-01-04T14:44:02.890Z,9.30
2018-01-04T14:46:30.373Z,9.20
2018-01-04T14:48:57.877Z,9.20
2018-01-04T14:51:26.134Z,9.20
2018-01-04T14:53:53.642Z,9.20
2018-01-04T14:56:21.132Z,9.20
2018-01-04T14:58:48.637Z,9.20
2018-01-04T15:01:16.890Z,9.20
2018-01-04T15:03:44.393Z,9.20
2018-01-04T15:06:11.882Z,9.20
2018-01-04T15:08:39.386Z,9.20
2018-01-04T15:11:07.642Z,9.20
2018-01-04T15:13:35.150Z,9.20
2018-01-04T15:16:02.642Z,9.20
2018-01-04T15:18:30.149Z,9.20
2018-01-04T15:20:58.401Z,9.20
2018-01-04T15:23:25.914Z,9.20
2018-01-04T15:25:53.421Z,9.20
2018-01-04T15:28:20.918Z,9.20
2018-01-04T15:30:48.419Z,9.20
2018-01-04T15:33:15.933Z,9.20
2018-01-04T15:35:43.437Z,9.20
2018-01-04T15:38:10.945Z,9.20
2018-01-04T15:40:38.439Z,9.20
2018-01-04T15:43:06.724Z,9.20
2018-01-04T15:45:34.223Z,9.20
2018-01-04T15:48:02.487Z,9.20
2018-01-04T15:50:30.014Z,9.20
2018-01-04T15:52:57.514Z,9.20
2018-01-04T15:55:25.793Z,9.20
2018-01-04T15:57:54.054Z,9.30
2018-01-04T16:00:21.565Z,9.20
2018-01-04T16:02:49.058Z,9.30
2018-01-04T16:05:16.557Z,9.40
2018-01-04T16:07:44.816Z,9.60
2018-01-04T16:10:13.090Z,9.70
2018-01-04T16:12:41.344Z,9.90
2018-01-04T16:15:08.849Z,9.90
2018-01-04T16:17:36.344Z,10.00
2018-01-04T16:20:03.857Z,10.10
2018-01-04T16:22:32.167Z,10.40
2018-01-04T16:24:59.678Z,10.40
2018-01-04T16:27:27.938Z,10.50
2018-01-04T16:29:56.957Z,10.60
2018-01-04T16:32:25.214Z,10.70
2018-01-04T16:34:52.725Z,10.70
2018-01-04T16:37:20.222Z,10.90
2018-01-04T16:39:47.733Z,11.00
2018-01-04T16:42:15.230Z,11.10
2018-01-04T16:44:42.742Z,11.10
2018-01-04T16:47:10.233Z,11.20
2018-01-04T16:49:37.726Z,11.30
2018-01-04T16:52:05.233Z,11.30
2018-01-04T16:54:32.727Z,11.40
2018-01-04T16:57:00.225Z,11.50
2018-01-04T16:59:28.485Z,11.60
2018-01-04T17:01:55.994Z,11.60
2018-01-04T17:04:23.490Z,11.70
2018-01-04T17:06:50.998Z,11.70
2018-01-04T17:09:18.497Z,11.80
2018-01-04T17:11:46.053Z,11.80
2018-01-04T17:14:13.586Z,11.80
2018-01-04T17:16:41.098Z,11.90
2018-01-04T17:19:08.589Z,12.00
2018-01-04T17:21:36.106Z,12.00
2018-01-04T17:24:03.596Z,12.00
2018-01-04T17:26:31.162Z,12.10
2018-01-04T17:28:58.634Z,12.10
2018-01-04T17:31:26.341Z,12.10
2018-01-04T17:33:53.837Z,12.20
2018-01-04T17:36:22.106Z,12.20
2018-01-04T17:38:50.361Z,12.20
2018-01-04T17:41:17.912Z,12.20
2018-01-04T17:43:45.402Z,12.20
2018-01-04T17:46:13.719Z,12.30
2018-01-04T17:48:41.217Z,12.30
2018-01-04T17:51:08.764Z,12.30
2018-01-04T17:53:36.249Z,12.30
2018-01-04T17:56:04.554Z,12.30
2018-01-04T17:58:32.808Z,12.40
2018-01-04T18:01:00.314Z,12.40
2018-01-04T18:03:27.817Z,12.40
2018-01-04T18:05:56.074Z,12.40
2018-01-04T18:08:23.581Z,12.40
2018-01-04T18:10:51.081Z,12.40
2018-01-04T18:13:18.594Z,12.40
2018-01-04T18:15:46.085Z,12.50
2018-01-04T18:18:13.593Z,12.50
2018-01-04T18:20:41.855Z,12.50
2018-01-04T18:23:09.367Z,12.50
2018-01-04T18:25:36.866Z,12.60
2018-01-04T18:28:04.382Z,12.60
2018-01-04T18:30:31.938Z,12.60
2018-01-04T18:32:59.488Z,12.60
2018-01-04T18:35:27.042Z,12.60
2018-01-04T18:37:54.598Z,12.60
2018-01-04T18:40:22.098Z,12.70
2018-01-04T18:42:50.411Z,12.70
2018-01-04T18:45:17.959Z,12.70
2018-01-04T18:47:45.521Z,12.70
2018-01-04T18:50:13.833Z,12.70
2018-01-04T18:52:41.348Z,12.70
2018-01-04T18:55:08.896Z,12.70
2018-01-04T18:57:36.456Z,12.70
2018-01-04T19:00:04.010Z,12.70
2018-01-04T19:02:31.525Z,12.70
2018-01-04T19:04:59.824Z,12.70
2018-01-04T19:07:28.100Z,12.70
2018-01-04T19:09:55.642Z,12.80
2018-01-04T19:12:23.199Z,12.80
2018-01-04T19:14:51.453Z,12.80
2018-01-04T19:17:18.965Z,12.80
2018-01-04T19:19:46.525Z,12.80
2018-01-04T19:22:14.117Z,12.80
2018-01-04T19:24:41.665Z,12.80
2018-01-04T19:27:09.224Z,12.80
2018-01-04T19:29:36.735Z,12.80
2018-01-04T19:32:04.275Z,12.80
2018-01-04T19:34:31.832Z,12.90
2018-01-04T19:36:59.377Z,12.90
2018-01-04T19:39:26.945Z,12.90
2018-01-04T19:41:54.485Z,12.90
2018-01-04T19:44:22.042Z,12.90
2018-01-04T19:46:49.588Z,12.90
2018-01-04T19:49:17.152Z,12.90
2018-01-04T19:51:44.701Z,12.90
2018-01-04T19:54:12.261Z,12.90
2018-01-04T19:56:39.809Z,12.90
2018-01-04T19:59:07.377Z,12.90
2018-01-04T20:01:34.917Z,12.90
2018-01-04T20:04:02.487Z,12.80
2018-01-04T20:06:30.032Z,12.90
2018-01-04T20:08:58.365Z,12.80
2018-01-04T20:11:25.912Z,12.80
2018-01-04T20:13:53.478Z,12.80
2018-01-04T20:16:21.022Z,12.80
2018-01-04T20:18:48.597Z,12.90
2018-01-04T20:21:16.137Z,12.90
2018-01-04T20:23:43.706Z,12.90
2018-01-04T20:26:11.244Z,12.90
2018-01-04T20:28:38.811Z,12.90
2018-01-04T20:31:06.361Z,12.90
2018-01-04T20:33:33.940Z,12.80
2018-01-04T20:36:01.480Z,12.80
2018-01-04T20:38:29.049Z,12.80
2018-01-04T20:40:56.624Z,12.80
2018-01-04T20:43:24.184Z,12.80
2018-01-04T20:45:51.729Z,12.80
2018-01-04T20:48:19.288Z,12.80
2018-01-04T20:50:46.834Z,12.80
2018-01-04T20:53:15.173Z,12.80
2018-01-04T20:55:42.721Z,12.80
2018-01-04T20:58:10.281Z,12.80
2018-01-04T21:00:37.817Z,12.80
2018-01-04T21:03:05.378Z,12.80
2018-01-04T21:05:32.925Z,12.80
2018-01-04T21:08:00.480Z,12.90
2018-01-04T21:10:28.026Z,12.90
2018-01-04T21:12:56.365Z,12.90
2018-01-04T21:15:23.910Z,12.90
2018-01-04T21:17:51.449Z,12.90
2018-01-04T21:20:19.014Z,12.90
2018-01-04T21:22:46.564Z,12.80
2018-01-04T21:25:14.120Z,12.90
2018-01-04T21:27:41.661Z,12.80
2018-01-04T21:30:09.235Z,12.80
2018-01-04T21:32:36.786Z,12.90
2018-01-04T21:35:04.345Z,12.80
2018-01-04T21:37:32.673Z,12.80
2018-01-04T21:40:00.224Z,12.80
2018-01-04T21:42:27.770Z,12.80
2018-01-04T21:44:55.334Z,12.80
2018-01-04T21:47:22.881Z,12.80
2018-01-04T21:49:50.442Z,12.90
2018-01-04T21:52:17.984Z,12.80
2018-01-04T21:54:45.544Z,12.80
2018-01-04T21:57:13.094Z,12.80
2018-01-04T21:59:41.420Z,12.80
2018-01-04T22:02:08.961Z,12.90
2018-01-04T22:04:36.521Z,12.80
2018-01-04T22:07:04.065Z,12.80
2018-01-04T22:09:31.624Z,12.80
2018-01-04T22:11:59.165Z,12.80
2018-01-04T22:14:27.496Z,12.80
2018-01-04T22:16:55.049Z,12.80
2018-01-04T22:19:22.641Z,12.80
2018-01-04T22:21:50.181Z,12.80
2018-01-04T22:24:17.745Z,12.80
2018-01-04T22:26:46.053Z,12.70
2018-01-04T22:29:13.619Z,12.70
2018-01-04T22:31:41.939Z,12.70
2018-01-04T22:34:09.497Z,12.70
2018-01-04T22:36:37.045Z,12.70
2018-01-04T22:39:04.589Z,12.80
2018-01-04T22:41:32.179Z,12.90
2018-01-04T22:43:59.727Z,12.90
2018-01-04T22:46:27.293Z,12.90
2018-01-04T22:48:54.828Z,12.90
2018-01-04T22:51:23.157Z,12.90
2018-01-04T22:53:50.701Z,12.90
2018-01-04T22:56:18.251Z,12.90
2018-01-04T22:58:45.796Z,13.00
2018-01-04T23:01:13.352Z,13.00
2018-01-04T23:03:40.905Z,13.00
2018-01-04T23:06:08.469Z,13.00
2018-01-04T23:08:36.763Z,13.00
2018-01-04T23:11:04.324Z,13.00
2018-01-04T23:13:31.865Z,13.00
2018-01-04T23:16:00.195Z,13.10
2018-01-04T23:18:27.741Z,13.00
2018-01-04T23:20:55.301Z,13.10
2018-01-04T23:23:22.853Z,13.10
2018-01-04T23:25:50.412Z,13.10
2018-01-04T23:28:17.958Z,13.10
2018-01-04T23:30:45.514Z,13.10
2018-01-04T23:33:13.047Z,13.10
2018-01-04T23:35:41.377Z,13.00
2018-01-04T23:38:08.865Z,13.00
2018-01-04T23:40:36.416Z,13.00
2018-01-04T23:43:03.960Z,12.90
2018-01-04T23:45:31.526Z,12.90
2018-01-04T23:47:59.079Z,12.80
2018-01-04T23:50:26.591Z,12.80
2018-01-04T23:52:54.887Z,12.70
2018-01-04T23:55:22.431Z,12.60
2018-01-04T23:57:50.726Z,12.50
